Time;durP1;ratioP1;P1;durP2;ratioP2;P2;SDS_P1;SDS_P2;PMS_P1;PMS_P2;Temp;Humidity;BMP_temperature;BMP_pressure;BME280_temperature;BME280_humidity;BME280_pressure;Samples;Min_cycle;Max_cycle;Signal;HPM_P1;HPM_P2
2023/09/17 00:00:31;;;;;;;2.63;2.43;;;;;;;21.09;100.00;99973.13;5111266;28;20204;-67
2023/09/17 00:02:58;;;;;;;4.97;2.77;;;;;;;21.11;100.00;99977.34;5110924;28;20195;-67
2023/09/17 00:05:25;;;;;;;2.50;2.37;;;;;;;21.12;100.00;99988.63;5111054;28;20578;-67
2023/09/17 00:07:52;;;;;;;3.50;3.20;;;;;;;21.13;100.00;99967.66;5111065;28;20214;-67
2023/09/17 00:10:18;;;;;;;2.80;2.63;;;;;;;21.16;100.00;99984.88;5111092;28;20213;-67
2023/09/17 00:12:45;;;;;;;3.50;3.20;;;;;;;21.15;100.00;99978.00;5110238;28;20224;-67
2023/09/17 00:15:12;;;;;;;2.73;2.53;;;;;;;21.18;100.00;99980.41;5111053;28;20201;-67
2023/09/17 00:17:40;;;;;;;3.73;2.60;;;;;;;21.17;100.00;99974.34;5110807;28;20194;-67
2023/09/17 00:20:10;;;;;;;2.77;2.57;;;;;;;21.17;100.00;99970.91;5111002;28;21093;-67
2023/09/17 00:22:37;;;;;;;2.93;2.60;;;;;;;21.18;100.00;99962.16;5111273;28;20594;-67
2023/09/17 00:25:05;;;;;;;2.27;2.17;;;;;;;21.19;100.00;99963.81;5111033;28;20197;-67
2023/09/17 00:27:32;;;;;;;2.50;2.37;;;;;;;21.15;100.00;99964.94;5110637;28;20672;-67
2023/09/17 00:29:58;;;;;;;2.73;2.50;;;;;;;21.13;100.00;99961.63;5110672;28;20199;-67
2023/09/17 00:32:25;;;;;;;3.17;2.87;;;;;;;21.09;100.00;99954.88;5113505;28;20218;-67
2023/09/17 00:34:53;;;;;;;2.20;2.00;;;;;;;21.09;100.00;99957.50;5114983;28;20206;-67
2023/09/17 00:37:20;;;;;;;2.90;2.70;;;;;;;21.08;100.00;99956.66;5113521;28;20203;-67
2023/09/17 00:39:47;;;;;;;2.70;2.60;;;;;;;21.11;100.00;99955.66;5114621;28;20269;-66
2023/09/17 00:42:14;;;;;;;3.00;2.80;;;;;;;21.12;100.00;99962.53;5114472;28;20555;-67
2023/09/17 00:44:40;;;;;;;2.33;2.13;;;;;;;21.13;100.00;99959.00;5114963;28;20577;-67
2023/09/17 00:47:08;;;;;;;2.70;2.60;;;;;;;21.14;100.00;99953.69;5114744;28;20281;-67
2023/09/17 00:49:35;;;;;;;3.00;2.90;;;;;;;21.11;100.00;99937.41;5114885;28;20255;-67
2023/09/17 00:52:10;;;;;;;2.97;2.67;;;;;;;21.18;100.00;99947.34;5114341;28;20205;-67
2023/09/17 00:54:37;;;;;;;3.23;2.80;;;;;;;21.20;100.00;99949.84;5114837;28;20200;-67
2023/09/17 00:57:04;;;;;;;3.30;3.10;;;;;;;21.23;100.00;99949.63;5114283;28;20701;-67
2023/09/17 00:59:31;;;;;;;3.17;2.97;;;;;;;21.25;100.00;99947.78;5114801;28;20198;-67
2023/09/17 01:01:58;;;;;;;2.77;2.57;;;;;;;21.24;100.00;99951.31;5114166;28;20227;-67
2023/09/17 01:04:26;;;;;;;2.67;2.53;;;;;;;21.26;100.00;99947.66;5114847;28;20582;-67
2023/09/17 01:06:55;;;;;;;2.33;2.13;;;;;;;21.29;100.00;99946.66;5114677;28;20662;-67
2023/09/17 01:09:25;;;;;;;2.83;2.63;;;;;;;21.32;100.00;99959.50;5114662;27;20202;-67
2023/09/17 01:11:52;;;;;;;2.87;2.67;;;;;;;21.31;100.00;99953.44;5113898;28;20236;-67
2023/09/17 01:14:20;;;;;;;2.40;2.20;;;;;;;21.33;100.00;99955.91;5114243;28;20218;-67
2023/09/17 01:16:47;;;;;;;3.03;2.83;;;;;;;21.21;100.00;99944.53;5114709;28;20628;-67
2023/09/17 01:19:19;;;;;;;2.77;2.57;;;;;;;21.30;100.00;99956.97;5114413;28;20205;-67
2023/09/17 01:21:51;;;;;;;2.47;2.37;;;;;;;21.31;100.00;99952.59;5113846;28;20198;-67
2023/09/17 01:24:28;;;;;;;5.93;2.70;;;;;;;21.30;100.00;99948.28;5113964;28;20198;-67
2023/09/17 01:27:03;;;;;;;5.03;2.93;;;;;;;21.35;100.00;99956.69;5114076;28;20197;-67
2023/09/17 01:29:32;;;;;;;3.53;2.70;;;;;;;21.35;100.00;99944.47;5114323;28;20555;-67
2023/09/17 01:31:59;;;;;;;2.97;2.67;;;;;;;21.36;100.00;99940.91;5113724;28;20694;-67
2023/09/17 01:34:27;;;;;;;3.57;2.57;;;;;;;21.34;100.00;99939.34;5113698;28;20210;-67
2023/09/17 01:36:57;;;;;;;2.60;2.40;;;;;;;21.34;100.00;99944.56;5114105;28;20237;-67
2023/09/17 01:39:28;;;;;;;3.30;3.10;;;;;;;21.28;100.00;99934.53;5113682;28;20233;-67
2023/09/17 01:41:58;;;;;;;3.00;2.80;;;;;;;21.27;100.00;99938.06;5113193;28;20260;-67
2023/09/17 01:44:29;;;;;;;3.27;3.00;;;;;;;21.30;100.00;99935.25;5113507;28;20230;-67
2023/09/17 01:46:57;;;;;;;3.40;3.10;;;;;;;21.28;100.00;99937.97;5111827;28;20313;-67
2023/09/17 01:49:24;;;;;;;3.43;3.00;;;;;;;21.28;100.00;99927.56;5113585;28;20201;-67
2023/09/17 01:51:52;;;;;;;3.30;3.10;;;;;;;21.24;100.00;99920.84;5113487;28;20195;-67
2023/09/17 01:54:20;;;;;;;5.27;3.47;;;;;;;21.31;100.00;99924.75;5112873;28;20272;-67
2023/09/17 01:56:47;;;;;;;3.20;3.00;;;;;;;21.30;100.00;99933.50;5113844;28;20582;-67
2023/09/17 01:59:14;;;;;;;3.33;3.03;;;;;;;21.32;100.00;99922.97;5113200;28;20198;-67
2023/09/17 02:01:43;;;;;;;3.27;3.07;;;;;;;21.33;100.00;99927.22;5113603;28;20190;-67
2023/09/17 02:04:09;;;;;;;3.73;3.43;;;;;;;21.33;100.00;99930.69;5113240;28;20201;-67
2023/09/17 02:06:37;;;;;;;3.43;3.20;;;;;;;21.26;100.00;99915.56;5112658;28;20202;-67
2023/09/17 02:09:05;;;;;;;4.07;3.63;;;;;;;21.33;100.00;99925.47;5113235;28;20240;-67
2023/09/17 02:11:32;;;;;;;3.70;3.40;;;;;;;21.32;100.00;99933.41;5113182;28;20574;-67
2023/09/17 02:13:59;;;;;;;4.57;3.00;;;;;;;21.30;100.00;99924.81;5113126;28;20705;-67
2023/09/17 02:16:26;;;;;;;3.60;3.40;;;;;;;21.27;100.00;99932.84;5112962;28;20194;-67
2023/09/17 02:18:54;;;;;;;4.00;3.60;;;;;;;21.26;100.00;99928.59;5113214;28;20198;-67
2023/09/17 02:21:22;;;;;;;3.00;2.80;;;;;;;21.27;100.00;99938.06;5113088;28;20198;-67
2023/09/17 02:23:49;;;;;;;4.03;3.83;;;;;;;21.28;100.00;99943.19;5113148;28;20218;-67
2023/09/17 02:26:16;;;;;;;4.27;2.63;;;;;;;21.29;100.00;99939.63;5113291;28;20198;-67
2023/09/17 02:28:43;;;;;;;3.70;3.50;;;;;;;21.29;100.00;99934.41;5112630;28;20282;-67
2023/09/17 02:31:09;;;;;;;5.10;3.80;;;;;;;21.28;100.00;99942.34;5112784;28;20203;-67
2023/09/17 02:33:36;;;;;;;4.73;3.23;;;;;;;21.32;100.00;99943.84;5112426;28;20214;-67
2023/09/17 02:36:06;;;;;;;6.00;3.67;;;;;;;21.30;100.00;99935.25;5112839;28;20658;-67
2023/09/17 02:38:32;;;;;;;6.40;4.13;;;;;;;21.30;100.00;99930.03;5112551;28;20198;-67
2023/09/17 02:40:59;;;;;;;3.63;3.20;;;;;;;21.25;100.00;99932.13;5112374;28;20660;-67
2023/09/17 02:43:29;;;;;;;4.40;4.10;;;;;;;21.15;100.00;99931.06;5111119;28;20271;-67
2023/09/17 02:45:56;;;;;;;4.13;3.93;;;;;;;21.17;100.00;99935.22;5112184;28;20318;-67
2023/09/17 02:48:23;;;;;;;3.57;3.27;;;;;;;21.16;100.00;99927.53;5113068;28;20628;-67
2023/09/17 02:50:50;;;;;;;4.00;3.70;;;;;;;21.13;100.00;99922.50;5112451;28;20198;-67
2023/09/17 02:53:18;;;;;;;3.77;3.57;;;;;;;21.18;100.00;99925.63;5111723;28;20626;-67
2023/09/17 02:55:45;;;;;;;7.27;4.27;;;;;;;21.20;100.00;99913.31;5111785;28;20202;-67
2023/09/17 02:58:12;;;;;;;3.90;3.60;;;;;;;21.18;100.00;99920.44;5111570;28;20195;-67
2023/09/17 03:00:40;;;;;;;4.40;4.10;;;;;;;21.10;100.00;99901.84;5112358;28;20203;-67
2023/09/17 03:03:07;;;;;;;3.47;3.27;;;;;;;21.10;100.00;99912.28;5112278;28;20202;-67
2023/09/17 03:05:34;;;;;;;4.50;4.20;;;;;;;21.04;100.00;99912.63;5111885;28;20207;-67
2023/09/17 03:08:01;;;;;;;4.03;3.50;;;;;;;21.01;100.00;99918.03;5112324;28;20255;-67
2023/09/17 03:10:29;;;;;;;3.90;3.60;;;;;;;20.90;100.00;99901.31;5112198;28;20198;-67
2023/09/17 03:12:56;;;;;;;4.13;3.93;;;;;;;20.95;100.00;99916.66;5111480;28;20251;-67
2023/09/17 03:15:25;;;;;;;4.70;4.27;;;;;;;20.96;100.00;99905.31;5111916;28;20678;-67
2023/09/17 03:17:52;;;;;;;6.07;3.80;;;;;;;20.97;100.00;99913.97;5111628;28;20196;-67
2023/09/17 03:20:22;;;;;;;4.43;4.07;;;;;;;20.99;100.00;99914.69;5111829;28;20198;-67
2023/09/17 03:22:49;;;;;;;4.30;4.00;;;;;;;20.95;100.00;99908.84;5111442;28;20212;-67
2023/09/17 03:25:16;;;;;;;3.87;3.57;;;;;;;20.93;100.00;99905.50;5110712;28;20198;-67
2023/09/17 03:27:45;;;;;;;4.00;3.70;;;;;;;21.00;100.00;99921.59;5111781;28;20199;-67
2023/09/17 03:30:13;;;;;;;4.67;4.27;;;;;;;20.90;100.00;99906.53;5111244;28;20198;-67
2023/09/17 03:32:40;;;;;;;3.60;3.40;;;;;;;20.94;100.00;99928.88;5111703;28;20197;-67
2023/09/17 03:35:08;;;;;;;5.03;4.60;;;;;;;20.95;100.00;99925.34;5111158;28;20220;-67
2023/09/17 03:37:34;;;;;;;5.33;4.37;;;;;;;20.97;100.00;99921.81;5111677;28;20205;-67
2023/09/17 03:40:10;;;;;;;5.17;3.97;;;;;;;20.97;100.00;99927.00;5111543;28;20203;-67
2023/09/17 03:42:37;;;;;;;5.33;3.17;;;;;;;20.97;100.00;99916.59;5111359;28;20197;-67
2023/09/17 03:45:09;;;;;;;8.63;4.57;;;;;;;20.86;100.00;99899.03;5111350;28;20190;-67
2023/09/17 03:47:36;;;;;;;4.10;3.70;;;;;;;20.82;100.00;99902.75;5111485;28;20222;-67
2023/09/17 03:50:04;;;;;;;3.70;3.40;;;;;;;20.96;100.00;99915.75;5110597;28;20578;-67
2023/09/17 03:52:31;;;;;;;4.27;3.90;;;;;;;20.90;100.00;99916.94;5111080;28;20247;-67
2023/09/17 03:55:00;;;;;;;7.63;3.93;;;;;;;20.93;100.00;99924.59;5111145;28;20697;-67
2023/09/17 03:57:27;;;;;;;4.93;3.80;;;;;;;20.93;100.00;99932.41;5111466;28;20285;-67
2023/09/17 03:59:55;;;;;;;4.80;4.33;;;;;;;20.94;100.00;99934.06;5109435;28;20198;-67
2023/09/17 04:02:23;;;;;;;9.83;4.10;;;;;;;20.94;100.00;99928.88;5109280;28;20237;-67
2023/09/17 04:04:50;;;;;;;10.40;3.60;;;;;;;20.95;100.00;99927.94;5108280;28;20195;-67
2023/09/17 04:07:16;;;;;;;3.17;2.90;;;;;;;20.87;100.00;99917.16;5110394;28;20666;-67
2023/09/17 04:09:43;;;;;;;4.13;3.70;;;;;;;20.96;100.00;99941.81;5110430;28;20209;-67
2023/09/17 04:12:10;;;;;;;5.80;3.70;;;;;;;20.97;100.00;99934.84;5111050;28;20259;-67
2023/09/17 04:14:37;;;;;;;4.07;3.77;;;;;;;20.97;100.00;99927.81;5108925;28;20218;-67
2023/09/17 04:17:06;;;;;;;4.43;4.23;;;;;;;20.99;100.00;99927.75;5109910;28;20190;-67
2023/09/17 04:19:34;;;;;;;3.57;3.33;;;;;;;20.98;100.00;99932.09;5109954;28;20301;-67
2023/09/17 04:22:00;;;;;;;3.87;3.67;;;;;;;20.97;100.00;99933.03;5111135;28;20251;-67
2023/09/17 04:24:27;;;;;;;4.80;4.60;;;;;;;20.99;100.00;99930.34;5110581;28;20206;-67
2023/09/17 04:26:54;;;;;;;4.00;3.60;;;;;;;21.00;100.00;99937.25;5110270;28;20226;-67
2023/09/17 04:29:21;;;;;;;4.53;4.23;;;;;;;20.99;100.00;99936.41;5110906;28;20199;-67
2023/09/17 04:31:48;;;;;;;4.03;3.73;;;;;;;20.97;100.00;99945.25;5110777;28;20206;-67
2023/09/17 04:34:15;;;;;;;4.73;4.40;;;;;;;20.95;100.00;99935.75;5110418;28;20636;-67
2023/09/17 04:36:43;;;;;;;4.13;3.83;;;;;;;20.94;100.00;99944.50;5110808;28;20198;-67
2023/09/17 04:39:13;;;;;;;4.53;4.13;;;;;;;20.97;100.00;99947.88;5111187;28;20259;-67
2023/09/17 04:41:41;;;;;;;3.97;3.67;;;;;;;20.98;100.00;99949.50;5109539;28;20202;-67
2023/09/17 04:44:10;;;;;;;5.77;4.23;;;;;;;20.97;100.00;99953.06;5108923;28;20205;-67
2023/09/17 04:46:38;;;;;;;4.53;4.23;;;;;;;20.98;100.00;99952.13;5108672;28;20230;-67
2023/09/17 04:49:04;;;;;;;3.87;3.57;;;;;;;20.79;100.00;99924.63;5110475;28;20194;-67
2023/09/17 04:51:31;;;;;;;4.87;3.83;;;;;;;20.99;100.00;99956.41;5110485;28;20202;-67
2023/09/17 04:53:59;;;;;;;4.20;3.90;;;;;;;21.02;100.00;99956.22;5110603;28;20213;-67
2023/09/17 04:56:26;;;;;;;3.40;3.20;;;;;;;21.02;100.00;99956.22;5110185;28;20199;-67
2023/09/17 04:58:53;;;;;;;4.17;3.33;;;;;;;21.03;100.00;99957.91;5110118;28;20198;-67
2023/09/17 05:01:19;;;;;;;5.43;4.07;;;;;;;21.06;100.00;99960.31;5110246;28;20206;-67
2023/09/17 05:03:47;;;;;;;4.23;3.83;;;;;;;21.08;100.00;99967.09;5109518;28;20202;-67
2023/09/17 05:06:13;;;;;;;4.10;3.70;;;;;;;21.10;100.00;99964.44;5111118;28;20219;-67
2023/09/17 05:08:40;;;;;;;4.63;4.23;;;;;;;21.01;100.00;99955.38;5110337;28;20203;-67
2023/09/17 05:11:08;;;;;;;4.90;4.40;;;;;;;21.15;100.00;99971.00;5110189;28;20198;-67
2023/09/17 05:13:35;;;;;;;4.13;3.70;;;;;;;21.21;100.00;99967.16;5110504;28;20648;-67
2023/09/17 05:16:03;;;;;;;4.17;3.87;;;;;;;21.26;100.00;99962.50;5110386;28;20705;-67
2023/09/17 05:18:29;;;;;;;3.97;3.67;;;;;;;21.29;100.00;99963.09;5112267;28;20273;-67
2023/09/17 05:20:56;;;;;;;4.00;3.63;;;;;;;21.37;100.00;99970.44;5114357;28;20191;-65
2023/09/17 05:23:23;;;;;;;4.23;3.93;;;;;;;21.21;100.00;99951.50;5114462;28;20210;-67
2023/09/17 05:25:50;;;;;;;3.70;3.43;;;;;;;21.14;100.00;99971.94;5113946;28;20206;-68
2023/09/17 05:28:20;;;;;;;4.67;4.37;;;;;;;21.04;100.00;99969.97;5113910;28;20336;-66
2023/09/17 05:30:46;;;;;;;5.53;4.90;;;;;;;21.07;100.00;99975.00;5113345;28;20206;-66
2023/09/17 05:33:13;;;;;;;4.37;3.97;;;;;;;21.26;100.00;99971.13;5114484;28;20203;-66
2023/09/17 05:35:40;;;;;;;4.97;4.50;;;;;;;21.37;100.00;99967.84;5113875;28;20222;-65
2023/09/17 05:38:07;;;;;;;5.93;5.30;;;;;;;21.53;100.00;99973.72;5111068;28;20206;-67
2023/09/17 05:40:34;;;;;;;3.60;3.37;;;;;;;21.64;100.00;99979.06;5113070;28;20206;-68
2023/09/17 05:43:00;;;;;;;4.97;4.67;;;;;;;21.73;100.00;99965.41;5112676;28;20222;-67
2023/09/17 05:45:29;;;;;;;4.87;4.47;;;;;;;21.93;100.00;99972.78;5112611;28;20191;-66
2023/09/17 05:47:55;;;;;;;5.03;4.73;;;;;;;22.07;100.00;99978.84;5113044;28;20202;-67
2023/09/17 05:50:22;;;;;;;8.30;7.50;;;;;;;22.10;100.00;99978.63;5112192;28;20210;-67
2023/09/17 05:52:49;;;;;;;16.77;10.87;;;;;;;22.21;100.00;99976.09;5113402;28;20214;-67
2023/09/17 05:55:17;;;;;;;9.87;6.73;;;;;;;22.23;100.00;99976.84;5113296;28;20215;-67
2023/09/17 05:57:43;;;;;;;6.17;5.67;;;;;;;22.41;100.00;99972.94;5113136;28;20547;-67
2023/09/17 06:00:11;;;;;;;8.77;5.43;;;;;;;22.54;100.00;99973.75;5112687;27;20248;-67
2023/09/17 06:02:39;;;;;;;8.67;4.67;;;;;;;22.74;100.00;99975.84;5112523;28;20190;-67
2023/09/17 06:05:06;;;;;;;6.10;4.40;;;;;;;22.87;100.00;99971.41;5112107;28;20260;-67
2023/09/17 06:07:34;;;;;;;4.60;4.20;;;;;;;22.98;100.00;99973.22;5112644;28;20252;-67
2023/09/17 06:10:01;;;;;;;5.97;4.37;;;;;;;22.97;100.00;99972.38;5111987;28;20209;-67
2023/09/17 06:12:27;;;;;;;6.40;4.13;;;;;;;23.10;100.00;99976.75;5112502;28;20203;-67
2023/09/17 06:14:54;;;;;;;5.05;4.75;;;;;;;23.32;100.00;99979.47;5112023;28;20948;-68
2023/09/17 06:17:21;;;;;;;4.47;4.07;;;;;;;23.68;100.00;99987.25;5113521;28;20671;-69
2023/09/17 06:19:49;;;;;;;6.23;3.60;;;;;;;23.82;100.00;99976.56;5112329;28;20248;-69
2023/09/17 06:22:16;;;;;;;4.53;4.20;;;;;;;23.97;100.00;99985.88;5110682;28;20206;-68
2023/09/17 06:24:43;;;;;;;4.00;3.33;;;;;;;24.00;100.00;99985.66;5111535;28;20256;-68
2023/09/17 06:27:10;;;;;;;3.47;3.27;;;;;;;24.13;100.00;99989.97;5110275;28;20582;-69
2023/09/17 06:29:36;;;;;;;3.40;3.20;;;;;;;24.32;100.00;99995.47;5110201;28;20195;-69
2023/09/17 06:32:04;;;;;;;4.40;4.00;;;;;;;24.38;99.53;99997.63;5112085;28;20206;-69
2023/09/17 06:34:31;;;;;;;3.60;3.30;;;;;;;24.50;99.07;100002.72;5111776;28;20214;-69
2023/09/17 06:36:59;;;;;;;5.57;2.63;;;;;;;24.40;98.72;100003.56;5112125;28;20726;-69
2023/09/17 06:39:26;;;;;;;2.80;2.63;;;;;;;24.22;99.05;100005.00;5112483;28;20248;-69
2023/09/17 06:41:53;;;;;;;3.10;2.90;;;;;;;24.26;99.68;99995.94;5112709;28;20191;-68
2023/09/17 06:44:19;;;;;;;2.70;2.60;;;;;;;24.44;99.18;99999.75;5112970;28;20187;-69
2023/09/17 06:46:46;;;;;;;2.77;2.57;;;;;;;24.52;97.21;100002.63;5112998;28;20763;-69
2023/09/17 06:49:13;;;;;;;2.83;2.63;;;;;;;24.70;98.37;99995.94;5113083;28;20199;-69
2023/09/17 06:51:40;;;;;;;3.70;3.50;;;;;;;24.55;96.96;100002.38;5112860;28;20586;-68
2023/09/17 06:54:08;;;;;;;2.57;2.37;;;;;;;24.55;97.71;100003.22;5112625;28;20624;-69
2023/09/17 06:56:35;;;;;;;3.17;2.87;;;;;;;24.45;97.39;99994.41;5112932;28;20190;-68
2023/09/17 06:59:02;;;;;;;3.77;3.13;;;;;;;24.47;98.18;99996.91;5112715;28;20685;-68
2023/09/17 07:01:29;;;;;;;4.03;3.57;;;;;;;24.50;98.08;99999.28;5112439;28;20666;-68
2023/09/17 07:03:55;;;;;;;2.83;2.70;;;;;;;24.54;98.39;99988.44;5112015;28;20590;-68
2023/09/17 07:06:22;;;;;;;5.13;3.10;;;;;;;24.51;98.24;99987.84;5111861;28;20663;-68
2023/09/17 07:08:49;;;;;;;4.47;4.10;;;;;;;24.56;98.16;99983.06;5112402;28;20666;-68
2023/09/17 07:11:17;;;;;;;5.53;2.33;;;;;;;24.63;98.20;99984.25;5112392;28;20210;-69
2023/09/17 07:13:44;;;;;;;4.13;3.73;;;;;;;24.61;96.25;99985.34;5109133;28;20218;-68
2023/09/17 07:16:12;;;;;;;4.67;4.27;;;;;;;24.50;96.98;99989.63;5112107;28;20221;-69
2023/09/17 07:18:39;;;;;;;4.30;3.57;;;;;;;24.40;98.10;99985.22;5112547;28;20627;-69
2023/09/17 07:21:06;;;;;;;4.03;3.50;;;;;;;24.43;97.59;99984.97;5112606;28;20670;-69
2023/09/17 07:23:33;;;;;;;3.73;3.30;;;;;;;24.68;98.12;99982.13;5112530;28;20587;-69
2023/09/17 07:26:00;;;;;;;3.50;3.23;;;;;;;24.85;97.41;99991.28;5112076;28;20681;-68
2023/09/17 07:28:28;;;;;;;4.40;3.73;;;;;;;24.95;95.85;99990.44;5112121;28;20194;-69
2023/09/17 07:30:55;;;;;;;3.10;2.90;;;;;;;25.02;94.44;99996.84;5112133;28;20201;-70
2023/09/17 07:33:22;;;;;;;3.17;2.97;;;;;;;25.07;93.70;99996.50;5112138;28;20210;-69
2023/09/17 07:35:49;;;;;;;3.83;3.57;;;;;;;25.13;93.42;99997.78;5111378;28;20214;-68
2023/09/17 07:38:16;;;;;;;2.93;2.83;;;;;;;25.13;93.72;99995.16;5109940;28;20195;-69
2023/09/17 07:40:43;;;;;;;3.37;3.07;;;;;;;25.18;93.77;99998.22;5111885;28;20291;-69
2023/09/17 07:43:09;;;;;;;2.80;2.70;;;;;;;25.14;93.69;100005.50;5111966;28;20203;-68
2023/09/17 07:45:38;;;;;;;2.93;2.73;;;;;;;25.28;94.01;100001.78;5110693;28;20195;-69
2023/09/17 07:48:05;;;;;;;4.40;2.10;;;;;;;25.18;93.18;100006.09;5111637;28;20201;-69
2023/09/17 07:50:31;;;;;;;3.07;2.67;;;;;;;25.06;93.47;100000.91;5112066;28;20675;-69
2023/09/17 07:52:58;;;;;;;2.47;2.37;;;;;;;24.98;94.16;100005.91;5111679;28;20195;-68
2023/09/17 07:55:25;;;;;;;3.40;3.20;;;;;;;25.07;94.44;100010.41;5111373;28;20216;-69
2023/09/17 07:57:52;;;;;;;3.13;2.90;;;;;;;25.29;92.92;100012.16;5112010;28;20736;-69
2023/09/17 08:00:20;;;;;;;3.27;3.07;;;;;;;25.53;92.39;100007.56;5111438;28;20209;-68
2023/09/17 08:02:49;;;;;;;3.97;3.00;;;;;;;25.79;91.38;99989.63;5111677;28;20194;-69
2023/09/17 08:05:15;;;;;;;2.63;2.43;;;;;;;26.03;89.80;100000.72;5111235;28;20752;-69
2023/09/17 08:07:42;;;;;;;2.70;2.60;;;;;;;26.13;87.88;100000.78;5111510;28;20191;-69
2023/09/17 08:10:09;;;;;;;3.30;3.17;;;;;;;25.79;87.00;100008.03;5111416;28;20198;-68
2023/09/17 08:12:37;;;;;;;2.10;2.00;;;;;;;25.65;88.11;100000.47;5111582;28;20286;-69
2023/09/17 08:15:04;;;;;;;3.20;2.93;;;;;;;25.51;88.51;99998.97;5110590;28;20709;-68
2023/09/17 08:17:31;;;;;;;3.37;3.07;;;;;;;25.62;90.19;99992.00;5111448;28;20202;-68
2023/09/17 08:19:59;;;;;;;2.73;2.60;;;;;;;25.84;89.18;99994.50;5111682;28;20197;-69
2023/09/17 08:22:27;;;;;;;2.77;2.50;;;;;;;25.92;85.83;99981.56;5111140;28;20689;-68
2023/09/17 08:24:54;;;;;;;2.50;2.40;;;;;;;26.09;84.93;99989.69;5111454;28;20631;-68
2023/09/17 08:27:21;;;;;;;2.90;2.70;;;;;;;26.35;85.65;99982.22;5111243;28;20231;-69
2023/09/17 08:29:48;;;;;;;3.23;2.67;;;;;;;26.45;83.28;99991.00;5110871;28;20206;-68
2023/09/17 08:32:15;;;;;;;2.17;1.90;;;;;;;26.48;84.09;99984.63;5111176;28;20209;-68
2023/09/17 08:34:41;;;;;;;2.33;2.23;;;;;;;26.58;84.00;99982.88;5111435;28;20194;-68
2023/09/17 08:37:10;;;;;;;4.50;2.60;;;;;;;26.59;80.73;99987.16;5111410;28;20559;-68
2023/09/17 08:39:36;;;;;;;4.47;2.30;;;;;;;26.67;81.36;99974.16;5108564;28;20195;-68
2023/09/17 08:42:04;;;;;;;2.87;2.70;;;;;;;26.98;80.53;99981.03;5111102;28;20194;-68
2023/09/17 08:44:31;;;;;;;2.57;2.47;;;;;;;26.98;77.73;99973.16;5111016;28;20251;-69
2023/09/17 08:46:59;;;;;;;2.87;2.67;;;;;;;26.93;79.35;99974.53;5111030;28;20223;-69
2023/09/17 08:49:26;;;;;;;2.83;2.73;;;;;;;26.93;80.12;99975.38;5110703;28;20202;-69
2023/09/17 08:51:56;;;;;;;2.33;2.23;;;;;;;27.00;78.04;99976.50;5111643;28;20671;-70
2023/09/17 08:54:27;;;;;;;2.53;2.43;;;;;;;27.01;77.90;99978.13;5115564;28;20194;-69
2023/09/17 08:56:58;;;;;;;3.03;2.83;;;;;;;27.12;77.29;99970.13;5115163;28;20245;-69
2023/09/17 08:59:29;;;;;;;2.00;1.90;;;;;;;27.24;75.41;99977.91;5114994;28;20202;-68
2023/09/17 09:02:01;;;;;;;2.47;2.37;;;;;;;27.38;73.20;99974.84;5115339;28;20614;-69
2023/09/17 09:04:28;;;;;;;2.60;2.40;;;;;;;27.37;72.58;99975.78;5114963;28;20708;-68
2023/09/17 09:06:56;;;;;;;2.40;2.30;;;;;;;27.23;72.87;99986.75;5114944;27;20274;-69
2023/09/17 09:09:26;;;;;;;2.80;2.60;;;;;;;27.05;74.05;99969.00;5114396;28;20309;-68
2023/09/17 09:11:53;;;;;;;2.53;2.43;;;;;;;26.95;74.52;99973.41;5115549;28;20203;-69
2023/09/17 09:14:20;;;;;;;3.20;2.90;;;;;;;27.05;74.17;99973.44;5115136;28;20226;-68
2023/09/17 09:16:47;;;;;;;4.13;3.83;;;;;;;27.17;74.48;99971.53;5115012;28;20276;-69
2023/09/17 09:19:14;;;;;;;2.67;2.47;;;;;;;27.21;75.04;99951.81;5114508;28;20202;-68
2023/09/17 09:21:41;;;;;;;2.70;2.60;;;;;;;27.36;76.53;99963.63;5114742;28;20194;-68
2023/09/17 09:24:09;;;;;;;2.27;2.17;;;;;;;27.50;74.91;99964.06;5114945;28;20195;-68
2023/09/17 09:26:38;;;;;;;2.63;2.50;;;;;;;27.58;70.71;99960.72;5114846;28;20199;-68
2023/09/17 09:29:06;;;;;;;3.50;3.30;;;;;;;27.75;70.77;99960.00;5114558;28;20691;-69
2023/09/17 09:31:35;;;;;;;3.43;3.33;;;;;;;27.70;69.55;99954.31;5114590;28;20634;-68
2023/09/17 09:34:02;;;;;;;3.87;3.13;;;;;;;27.70;70.58;99962.22;5114630;28;20198;-68
2023/09/17 09:36:33;;;;;;;3.00;2.80;;;;;;;27.72;70.10;99956.81;5114190;28;20215;-68
2023/09/17 09:38:59;;;;;;;4.20;3.43;;;;;;;27.83;71.57;99943.47;5114369;28;20195;-68
2023/09/17 09:41:29;;;;;;;4.53;3.50;;;;;;;28.03;67.46;99960.91;5114394;28;20199;-68
2023/09/17 09:43:59;;;;;;;2.97;2.77;;;;;;;27.98;69.26;99953.41;5114279;28;20251;-69
2023/09/17 09:46:26;;;;;;;5.57;2.67;;;;;;;28.11;69.14;99953.94;5114185;28;20309;-68
2023/09/17 09:48:53;;;;;;;2.97;2.77;;;;;;;28.12;69.88;99955.63;5113866;28;20190;-69
2023/09/17 09:51:21;;;;;;;3.40;3.20;;;;;;;28.04;69.33;99942.31;5114274;28;20259;-69
2023/09/17 09:53:48;;;;;;;3.67;3.47;;;;;;;27.93;68.76;99946.91;5114220;28;20681;-68
2023/09/17 09:56:15;;;;;;;2.80;2.67;;;;;;;27.79;69.22;99940.28;5114274;28;20283;-69
2023/09/17 09:58:42;;;;;;;3.50;2.83;;;;;;;27.91;69.44;99933.91;5113803;28;20199;-68
2023/09/17 10:01:11;;;;;;;3.50;3.30;;;;;;;27.96;69.70;99938.72;5114160;28;20735;-69
2023/09/17 10:03:37;;;;;;;2.90;2.80;;;;;;;27.95;69.03;99932.59;5112794;28;20198;-69
2023/09/17 10:06:07;;;;;;;3.27;2.93;;;;;;;27.64;67.28;99928.53;5108574;28;20191;-68
2023/09/17 10:08:35;;;;;;;3.33;3.10;;;;;;;27.49;68.01;99929.97;5113900;28;20194;-68
2023/09/17 10:11:03;;;;;;;2.90;2.70;;;;;;;27.46;68.15;99924.97;5113838;28;20220;-68
2023/09/17 10:13:32;;;;;;;2.50;2.30;;;;;;;27.72;69.12;99920.78;5113564;28;20194;-68
2023/09/17 10:15:59;;;;;;;3.00;2.80;;;;;;;27.71;66.75;99918.28;5113698;28;20288;-68
2023/09/17 10:18:28;;;;;;;2.73;2.50;;;;;;;27.83;68.34;99914.47;5113828;28;20247;-69
2023/09/17 10:20:56;;;;;;;3.83;3.23;;;;;;;27.89;66.90;99917.38;5113560;28;20198;-69
2023/09/17 10:23:24;;;;;;;2.27;2.17;;;;;;;27.95;64.11;99921.25;5113521;28;20330;-70
2023/09/17 10:25:52;;;;;;;3.40;2.23;;;;;;;28.00;65.20;99917.22;5110655;28;20674;-68
2023/09/17 10:28:20;;;;;;;2.63;2.43;;;;;;;28.14;65.22;99921.22;5113535;28;20230;-68
2023/09/17 10:30:51;;;;;;;2.43;2.33;;;;;;;28.23;63.42;99925.63;5113724;28;20202;-69
2023/09/17 10:33:19;;;;;;;2.40;2.30;;;;;;;28.33;63.96;99917.66;5113360;28;20252;-68
2023/09/17 10:35:49;;;;;;;1.97;1.87;;;;;;;28.24;63.33;99921.19;5113150;28;20218;-68
2023/09/17 10:38:19;;;;;;;4.77;3.73;;;;;;;28.35;60.72;99928.88;5113673;28;20205;-68
2023/09/17 10:40:46;;;;;;;1.73;1.63;;;;;;;28.28;57.69;99918.09;5113305;28;20207;-69
2023/09/17 10:43:16;;;;;;;3.00;1.70;;;;;;;28.29;60.45;99913.66;5113020;27;20195;-68
2023/09/17 10:45:44;;;;;;;2.10;2.00;;;;;;;28.19;58.32;99910.22;5111003;28;20223;-68
2023/09/17 10:48:12;;;;;;;2.00;1.90;;;;;;;28.22;60.38;99917.84;5112825;28;20230;-68
2023/09/17 10:50:39;;;;;;;2.13;2.03;;;;;;;28.26;61.78;99911.31;5112803;28;20199;-69
2023/09/17 10:53:07;;;;;;;1.90;1.80;;;;;;;28.13;62.81;99888.75;5112951;28;20202;-68
2023/09/17 10:55:37;;;;;;;4.40;2.53;;;;;;;28.23;62.64;99891.34;5112595;28;20275;-68
2023/09/17 10:58:10;;;;;;;3.57;1.70;;;;;;;28.30;62.09;99894.22;5112778;28;20198;-68
2023/09/17 11:00:42;;;;;;;3.23;1.30;;;;;;;28.25;59.61;99888.53;5112767;28;20230;-68
2023/09/17 11:03:12;;;;;;;1.50;1.40;;;;;;;28.02;56.84;99886.25;5112678;28;20209;-68
2023/09/17 11:05:40;;;;;;;1.77;1.67;;;;;;;27.93;57.58;99887.13;5112940;27;20190;-69
2023/09/17 11:08:09;;;;;;;2.47;1.77;;;;;;;28.11;61.31;99874.06;5112259;28;20209;-69
2023/09/17 11:10:41;;;;;;;1.50;1.40;;;;;;;28.21;59.42;99877.44;5112717;28;20198;-69
2023/09/17 11:13:11;;;;;;;4.47;1.80;;;;;;;28.34;58.53;99872.66;5112423;28;20202;-68
2023/09/17 11:15:38;;;;;;;1.13;1.13;;;;;;;28.27;55.02;99858.44;5111700;28;20632;-69
2023/09/17 11:18:07;;;;;;;3.13;1.20;;;;;;;28.30;55.96;99859.94;5111411;28;20202;-68
2023/09/17 11:20:34;;;;;;;1.48;1.48;;;;;;;28.52;56.31;99864.78;5107492;28;20662;-69
2023/09/17 11:23:02;;;;;;;4.25;2.22;;;;;;;28.62;60.90;99847.09;5112149;28;20202;-68
2023/09/17 11:25:39;;;;;;;1.98;1.88;;;;;;;28.78;59.58;99854.34;5112218;28;20202;-68
2023/09/17 11:28:11;;;;;;;2.55;2.35;;;;;;;28.88;59.11;99850.66;5112428;28;20198;-68
2023/09/17 11:30:57;;;;;;;2.20;2.00;;;;;;;28.90;57.29;99846.03;5112076;28;20199;-69